Time;durP1;ratioP1;P1;durP2;ratioP2;P2;SDS_P1;SDS_P2;PMS_P1;PMS_P2;Temp;Humidity;BMP_temperature;BMP_pressure;BME280_temperature;BME280_humidity;BME280_pressure;Samples;Min_cycle;Max_cycle;Signal;HPM_P1;HPM_P2
2022/06/11 00:01:26;;;;;;;6.18;1.33;;;16.10;98.90;;;;;;4994092;28;20505;-66
2022/06/11 00:03:55;;;;;;;5.43;1.42;;;16.10;98.80;;;;;;4994090;28;20490;-66
2022/06/11 00:06:23;;;;;;;4.57;1.20;;;16.10;99.00;;;;;;4994140;28;20038;-66
2022/06/11 00:08:49;;;;;;;4.13;1.48;;;16.00;99.00;;;;;;4994090;28;20390;-66
2022/06/11 00:11:16;;;;;;;5.18;1.30;;;16.00;99.00;;;;;;4993988;28;20085;-65
2022/06/11 00:13:42;;;;;;;5.53;1.23;;;16.00;98.90;;;;;;4993822;28;20042;-66
2022/06/11 00:16:10;;;;;;;3.60;1.20;;;16.10;98.80;;;;;;4993726;28;20038;-66
2022/06/11 00:18:40;;;;;;;3.90;1.00;;;16.10;98.80;;;;;;4993528;28;20053;-65
2022/06/11 00:21:06;;;;;;;5.20;1.43;;;16.10;98.90;;;;;;4993880;28;20045;-66
2022/06/11 00:23:32;;;;;;;4.97;0.93;;;16.00;98.90;;;;;;4993726;28;20644;-65
2022/06/11 00:26:01;;;;;;;5.63;1.45;;;16.00;99.20;;;;;;4993806;28;20038;-66
2022/06/11 00:28:26;;;;;;;5.43;1.17;;;16.10;99.00;;;;;;4993307;28;20050;-66
2022/06/11 00:30:52;;;;;;;5.75;1.40;;;16.10;99.00;;;;;;4993448;28;20049;-66
2022/06/11 00:33:18;;;;;;;4.75;1.40;;;16.20;98.90;;;;;;4993811;28;20143;-65
2022/06/11 00:35:45;;;;;;;3.80;0.95;;;16.20;99.20;;;;;;4993614;28;20046;-66
2022/06/11 00:38:11;;;;;;;4.57;1.00;;;16.20;99.20;;;;;;4993623;28;20141;-66
2022/06/11 00:40:40;;;;;;;6.40;1.30;;;16.20;98.90;;;;;;4993764;28;20038;-65
2022/06/11 00:43:06;;;;;;;6.07;1.40;;;16.20;98.80;;;;;;4993697;28;20038;-66
2022/06/11 00:46:01;;;;;;;5.22;1.27;;;16.20;98.90;;;;;;4993969;28;20113;-66
2022/06/11 00:48:32;;;;;;;6.70;1.13;;;16.20;99.60;;;;;;4993311;28;20058;-66
2022/06/11 00:51:06;;;;;;;9.05;1.25;;;16.20;99.90;;;;;;4993262;28;20069;-65
2022/06/11 00:53:45;;;;;;;6.25;1.48;;;16.10;99.70;;;;;;4993189;28;20038;-66
2022/06/11 00:56:16;;;;;;;4.07;1.10;;;16.00;99.90;;;;;;4993319;28;20038;-65
2022/06/11 00:58:45;;;;;;;6.35;1.35;;;16.10;99.90;;;;;;4993523;28;20054;-66
2022/06/11 01:01:13;;;;;;;2.55;1.00;;;16.10;99.90;;;;;;4993504;28;20498;-66
2022/06/11 01:03:41;;;;;;;6.05;1.17;;;16.10;99.90;;;;;;4993590;28;20497;-66
2022/06/11 01:06:10;;;;;;;8.57;2.30;;;15.90;99.80;;;;;;4993501;28;20046;-66
2022/06/11 01:08:54;;;;;;;8.15;1.50;;;15.80;99.90;;;;;;4993268;28;20034;-65
2022/06/11 01:11:32;;;;;;;7.53;1.40;;;15.90;99.90;;;;;;4993284;28;20042;-66
2022/06/11 01:14:16;;;;;;;5.68;1.20;;;15.90;99.90;;;;;;4992991;28;20034;-65
2022/06/11 01:16:56;;;;;;;4.57;1.35;;;15.90;99.90;;;;;;4992886;28;20198;-66
2022/06/11 01:19:43;;;;;;;4.15;1.13;;;15.80;99.90;;;;;;4993266;28;20046;-65
2022/06/11 01:22:38;;;;;;;6.95;1.67;;;15.90;99.90;;;;;;4993151;28;20038;-66
2022/06/11 01:25:15;;;;;;;4.53;1.33;;;15.90;99.90;;;;;;4993169;28;20046;-66
2022/06/11 01:27:44;;;;;;;8.02;1.55;;;15.90;99.90;;;;;;4993265;28;20053;-65
2022/06/11 01:30:21;;;;;;;3.78;1.08;;;16.00;99.90;;;;;;4994671;28;20049;-65
2022/06/11 01:33:07;;;;;;;4.22;1.33;;;16.00;99.90;;;;;;4996924;28;20034;-65
2022/06/11 01:36:11;;;;;;;6.38;1.33;;;16.10;99.90;;;;;;4996850;28;20053;-65
2022/06/11 01:38:50;;;;;;;8.80;1.77;;;16.10;99.90;;;;;;4995258;28;20460;-66
2022/06/11 01:41:19;;;;;;;4.00;1.00;;;16.00;99.90;;;;;;4997087;28;20030;-65
2022/06/11 01:43:47;;;;;;;3.67;1.17;;;16.10;99.90;;;;;;4996796;28;20038;-65
2022/06/11 01:46:27;;;;;;;6.90;1.15;;;16.00;99.90;;;;;;4996807;28;20030;-65
2022/06/11 01:49:00;;;;;;;3.55;1.00;;;16.10;99.90;;;;;;4996681;28;20038;-65
2022/06/11 01:51:53;;;;;;;4.78;1.92;;;16.10;99.90;;;;;;4996761;28;20513;-65
2022/06/11 01:54:39;;;;;;;7.13;1.15;;;16.00;99.90;;;;;;4996630;28;20046;-66
2022/06/11 01:57:08;;;;;;;4.80;1.30;;;15.70;99.90;;;;;;4996491;28;20054;-66
2022/06/11 01:59:58;;;;;;;6.72;1.63;;;15.80;99.90;;;;;;4996568;28;20044;-66
2022/06/11 02:02:49;;;;;;;6.38;1.48;;;15.80;99.90;;;;;;4996379;28;20406;-66
2022/06/11 02:05:29;;;;;;;4.57;0.80;;;15.80;99.90;;;;;;4987003;28;20104;-65
2022/06/11 02:08:13;;;;;;;4.38;1.20;;;16.00;99.90;;;;;;4975601;28;20035;-66
2022/06/11 02:11:03;;;;;;;3.58;1.10;;;15.90;99.90;;;;;;4995869;28;20042;-65
2022/06/11 02:14:00;;;;;;;5.28;1.42;;;15.80;99.90;;;;;;4996407;28;20497;-65
2022/06/11 02:16:59;;;;;;;4.88;1.33;;;15.70;99.90;;;;;;4996297;28;20042;-65
2022/06/11 02:19:36;;;;;;;6.80;1.38;;;15.50;99.90;;;;;;4993916;28;20073;-65
2022/06/11 02:22:18;;;;;;;5.03;1.13;;;15.40;99.90;;;;;;4996238;28;20044;-65
2022/06/11 02:24:50;;;;;;;6.60;1.50;;;15.40;99.90;;;;;;4996052;28;20046;-65
2022/06/11 02:27:22;;;;;;;4.63;1.30;;;15.50;99.90;;;;;;4995855;28;20097;-65
2022/06/11 02:29:50;;;;;;;4.90;1.33;;;15.60;99.90;;;;;;4995988;28;20510;-66
2022/06/11 02:32:18;;;;;;;7.72;1.58;;;15.60;99.90;;;;;;4995982;28;20042;-65
2022/06/11 02:34:49;;;;;;;10.85;1.60;;;15.50;99.90;;;;;;4995934;28;20437;-65
2022/06/11 02:37:20;;;;;;;;;;;15.50;99.90;;;;;;4996193;28;20042;-65
2022/06/11 02:39:46;;;;;;;9.60;1.55;;;15.50;99.90;;;;;;4995683;28;19948;-65
2022/06/11 02:42:17;;;;;;;7.82;1.70;;;15.60;99.90;;;;;;4994385;28;20129;-66
2022/06/11 02:44:43;;;;;;;5.20;1.25;;;15.50;99.90;;;;;;4995445;28;20042;-65
2022/06/11 02:47:09;;;;;;;8.68;1.40;;;15.60;99.90;;;;;;4995511;28;20036;-65
2022/06/11 02:49:37;;;;;;;9.10;1.67;;;15.70;99.90;;;;;;4995391;28;20042;-65
2022/06/11 02:52:07;;;;;;;4.15;1.25;;;15.60;99.90;;;;;;4995276;28;20045;-65
2022/06/11 02:54:33;;;;;;;2.60;1.30;;;15.60;99.90;;;;;;4982175;28;20050;-65
2022/06/11 02:57:01;;;;;;;4.55;1.20;;;15.10;99.90;;;;;;4975702;28;20074;-66
2022/06/11 02:59:28;;;;;;;9.45;1.73;;;15.30;99.90;;;;;;4983969;28;20102;-65
2022/06/11 03:01:55;;;;;;;5.55;1.20;;;15.10;99.90;;;;;;4995197;28;20038;-66
2022/06/11 03:04:23;;;;;;;9.70;1.63;;;14.90;99.90;;;;;;4994447;28;20057;-66
2022/06/11 03:06:50;;;;;;;5.80;1.45;;;14.70;99.90;;;;;;4995048;28;20056;-66
2022/06/11 03:09:20;;;;;;;5.20;1.55;;;14.70;99.90;;;;;;4995384;28;20084;-65
2022/06/11 03:11:46;;;;;;;5.83;1.57;;;14.40;99.90;;;;;;4995142;28;20050;-65
2022/06/11 03:14:13;;;;;;;6.75;1.30;;;14.60;99.90;;;;;;4995189;28;20281;-65
2022/06/11 03:16:39;;;;;;;3.33;1.05;;;14.70;99.90;;;;;;4994972;28;20038;-66
2022/06/11 03:19:06;;;;;;;6.15;1.45;;;14.80;99.90;;;;;;4994769;28;20077;-66
2022/06/11 03:21:32;;;;;;;4.47;1.15;;;14.90;99.90;;;;;;4994815;28;20081;-65
2022/06/11 03:23:57;;;;;;;4.60;1.20;;;14.90;99.90;;;;;;4994979;28;20510;-65
2022/06/11 03:26:24;;;;;;;6.97;1.45;;;14.90;99.90;;;;;;4995019;28;20034;-65
2022/06/11 03:28:51;;;;;;;6.20;1.35;;;15.00;99.90;;;;;;4994632;28;20045;-65
2022/06/11 03:31:18;;;;;;;3.28;1.52;;;15.00;99.90;;;;;;4994652;28;20041;-66
2022/06/11 03:33:44;;;;;;;5.00;1.27;;;15.00;99.90;;;;;;4994826;28;20758;-65
2022/06/11 03:36:12;;;;;;;3.67;1.35;;;15.00;99.90;;;;;;4994648;28;20046;-66
2022/06/11 03:38:41;;;;;;;6.22;1.42;;;15.00;99.90;;;;;;4994409;28;20128;-66
2022/06/11 03:41:07;;;;;;;11.00;1.95;;;15.00;99.90;;;;;;4994533;28;20169;-65
2022/06/11 03:43:33;;;;;;;6.28;1.38;;;15.10;99.90;;;;;;4994239;28;20195;-65
2022/06/11 03:45:59;;;;;;;4.53;1.15;;;15.20;99.90;;;;;;4994194;28;20510;-66
2022/06/11 03:48:28;;;;;;;7.13;1.15;;;15.30;99.90;;;;;;4994220;28;20445;-65
2022/06/11 03:50:55;;;;;;;7.60;1.60;;;15.30;99.90;;;;;;4994100;28;20560;-65
2022/06/11 03:53:20;;;;;;;3.97;1.10;;;15.30;99.90;;;;;;4993916;28;20129;-65
2022/06/11 03:55:46;;;;;;;6.00;1.52;;;15.10;99.90;;;;;;4994172;28;20479;-65
2022/06/11 03:58:13;;;;;;;4.65;1.40;;;14.80;99.90;;;;;;4993880;28;20058;-66
2022/06/11 04:03:25;;;;;;;4.47;1.35;;;14.60;99.90;;;;;;4994264;28;20036;-65
2022/06/11 04:05:53;;;;;;;5.70;1.33;;;14.60;99.90;;;;;;4994244;28;20052;-65
2022/06/11 04:08:19;;;;;;;6.20;1.67;;;14.80;99.90;;;;;;4994359;28;20034;-66
2022/06/11 04:10:46;;;;;;;6.28;2.08;;;15.10;99.90;;;;;;4994326;28;20513;-66
2022/06/11 04:13:12;;;;;;;5.25;1.30;;;14.90;99.90;;;;;;4994061;28;20034;-66
2022/06/11 04:15:40;;;;;;;4.90;1.38;;;14.90;99.90;;;;;;4994063;28;20073;-66
2022/06/11 04:18:08;;;;;;;3.15;0.93;;;14.70;99.90;;;;;;4994104;28;20053;-66
2022/06/11 04:20:35;;;;;;;3.80;1.38;;;14.70;99.90;;;;;;4993841;28;20077;-65
2022/06/11 04:23:00;;;;;;;5.13;1.48;;;14.60;99.90;;;;;;4994013;28;20414;-65
2022/06/11 04:25:26;;;;;;;3.58;1.30;;;14.60;99.90;;;;;;4994004;28;20046;-66
2022/06/11 04:27:53;;;;;;;4.40;1.25;;;14.70;99.90;;;;;;4993735;28;20038;-65
2022/06/11 04:30:22;;;;;;;3.70;1.23;;;14.80;99.90;;;;;;4993416;28;20085;-66
2022/06/11 04:32:48;;;;;;;6.22;1.33;;;14.80;99.90;;;;;;4993621;28;20066;-65
2022/06/11 04:35:14;;;;;;;6.78;1.65;;;14.70;99.90;;;;;;4993606;28;20101;-65
2022/06/11 04:37:40;;;;;;;3.97;1.48;;;14.60;99.90;;;;;;4993869;28;20034;-65
2022/06/11 04:40:11;;;;;;;4.15;1.42;;;15.00;99.90;;;;;;4993679;28;20540;-65
2022/06/11 04:42:37;;;;;;;6.95;1.40;;;15.00;99.90;;;;;;4993875;28;20091;-65
2022/06/11 04:45:05;;;;;;;7.38;1.25;;;15.10;99.90;;;;;;4993710;28;20046;-65
2022/06/11 04:47:31;;;;;;;7.72;1.30;;;14.90;99.90;;;;;;4993521;28;20120;-65
2022/06/11 04:50:00;;;;;;;8.20;1.70;;;14.90;99.90;;;;;;4993550;28;20049;-66
2022/06/11 04:52:27;;;;;;;4.90;1.60;;;15.20;99.90;;;;;;4993683;28;20792;-65
2022/06/11 04:54:53;;;;;;;5.57;1.67;;;15.30;99.90;;;;;;4993588;28;20050;-65
2022/06/11 04:57:21;;;;;;;3.78;1.20;;;15.40;99.90;;;;;;4993344;28;20046;-65
2022/06/11 04:59:47;;;;;;;4.28;1.00;;;15.50;99.90;;;;;;4993498;28;20061;-65
2022/06/11 05:02:13;;;;;;;6.45;1.05;;;15.30;99.90;;;;;;4993606;28;20046;-66
2022/06/11 05:04:39;;;;;;;4.82;1.20;;;15.40;99.90;;;;;;4993998;28;20091;-66
2022/06/11 05:07:05;;;;;;;4.45;1.20;;;15.40;99.90;;;;;;4997400;28;20528;-66
2022/06/11 05:09:31;;;;;;;7.03;1.70;;;15.70;99.90;;;;;;4997005;28;20042;-66
2022/06/11 05:11:57;;;;;;;6.63;1.20;;;15.80;99.90;;;;;;4997077;28;20054;-65
2022/06/11 05:14:24;;;;;;;2.50;0.98;;;16.00;99.90;;;;;;4997268;28;20045;-65
2022/06/11 05:16:51;;;;;;;4.07;1.20;;;16.20;99.90;;;;;;4997068;28;20509;-66
2022/06/11 05:19:19;;;;;;;4.25;1.27;;;16.30;99.90;;;;;;4996899;28;20046;-66
2022/06/11 05:21:47;;;;;;;3.50;1.52;;;16.50;99.90;;;;;;4996851;28;20049;-66
2022/06/11 05:24:14;;;;;;;4.10;1.15;;;16.60;99.90;;;;;;4996972;28;20037;-66
2022/06/11 05:26:48;;;;;;;3.72;1.25;;;16.70;99.90;;;;;;4997025;28;20091;-66
2022/06/11 05:29:33;;;;;;;4.25;1.30;;;16.90;99.90;;;;;;4996751;28;20066;-66
2022/06/11 05:32:00;;;;;;;4.18;1.42;;;17.00;99.90;;;;;;4996288;28;20046;-66
2022/06/11 05:34:27;;;;;;;7.70;1.60;;;17.20;99.90;;;;;;4996508;28;20046;-66
2022/06/11 05:36:54;;;;;;;3.22;1.20;;;17.20;99.90;;;;;;4995769;28;20041;-65
2022/06/11 05:39:19;;;;;;;3.28;1.08;;;17.30;99.90;;;;;;4996646;28;20073;-65
2022/06/11 05:41:45;;;;;;;4.75;1.20;;;17.50;99.90;;;;;;4996914;28;20070;-65
2022/06/11 05:44:11;;;;;;;6.55;1.52;;;17.60;99.90;;;;;;4996864;28;20038;-65
2022/06/11 05:46:37;;;;;;;6.03;1.10;;;17.80;99.90;;;;;;4996003;28;20622;-65
2022/06/11 05:49:08;;;;;;;6.45;1.30;;;17.80;99.90;;;;;;4996382;28;20097;-65
2022/06/11 05:51:39;;;;;;;7.93;1.92;;;18.00;99.90;;;;;;4995198;28;20038;-65
2022/06/11 05:54:08;;;;;;;5.63;2.00;;;14.30;99.90;;;;;;4996678;28;20078;-65
2022/06/11 05:56:35;;;;;;;3.70;1.20;;;18.70;99.90;;;;;;4996689;28;20437;-65
2022/06/11 05:59:05;;;;;;;7.88;1.23;;;18.70;99.90;;;;;;4996385;28;20070;-66
2022/06/11 06:01:36;;;;;;;1.42;0.82;;;19.10;99.90;;;;;;4996500;28;20104;-66
2022/06/11 06:04:02;;;;;;;5.05;1.40;;;18.90;99.90;;;;;;4996423;28;20153;-65
2022/06/11 06:06:28;;;;;;;4.13;1.00;;;18.90;99.90;;;;;;4996761;28;20050;-66
2022/06/11 06:08:54;;;;;;;4.22;1.15;;;19.00;99.90;;;;;;4986787;28;20125;-66
2022/06/11 06:11:20;;;;;;;4.72;1.02;;;19.10;99.90;;;;;;4994231;28;20042;-66
2022/06/11 06:13:46;;;;;;;5.25;1.10;;;19.40;99.90;;;;;;4995349;28;20498;-66
2022/06/11 06:16:16;;;;;;;4.80;1.23;;;19.80;99.90;;;;;;4995657;28;20505;-66
2022/06/11 06:18:42;;;;;;;11.35;2.28;;;20.00;99.90;;;;;;4991123;28;20465;-64
2022/06/11 06:21:08;;;;;;;6.65;1.35;;;20.10;99.90;;;;;;4976800;28;20042;-65
2022/06/11 06:23:35;;;;;;;4.40;1.48;;;20.60;99.90;;;;;;4976602;28;20047;-65
2022/06/11 06:26:00;;;;;;;7.47;1.50;;;20.60;99.90;;;;;;4993102;28;20096;-65
2022/06/11 06:28:27;;;;;;;7.57;1.10;;;20.70;99.90;;;;;;4995923;28;20117;-65
2022/06/11 06:30:53;;;;;;;3.50;1.42;;;21.00;99.90;;;;;;4995963;28;20041;-66
2022/06/11 06:33:19;;;;;;;4.10;1.05;;;;;;;;;;4995937;28;20054;-66
2022/06/11 06:35:48;;;;;;;8.85;1.35;;;;;;;;;;4995855;28;20041;-67
2022/06/11 06:38:16;;;;;;;32.60;4.25;;;21.80;99.90;;;;;;4995703;28;20076;-66
2022/06/11 06:40:42;;;;;;;7.45;1.10;;;21.80;99.90;;;;;;4995608;28;20042;-67
2022/06/11 06:43:08;;;;;;;4.57;1.20;;;21.90;99.90;;;;;;4995702;28;20125;-66
2022/06/11 06:45:34;;;;;;;5.00;1.40;;;21.90;99.90;;;;;;4995476;28;20085;-65
2022/06/11 06:48:01;;;;;;;5.13;1.13;;;22.10;99.90;;;;;;4994411;28;20065;-66
2022/06/11 06:50:27;;;;;;;8.90;1.73;;;22.30;99.90;;;;;;4995674;28;20045;-65
2022/06/11 06:52:52;;;;;;;6.78;1.40;;;22.10;99.90;;;;;;4995493;28;20076;-66
2022/06/11 06:55:18;;;;;;;3.47;1.02;;;22.40;99.90;;;;;;4995381;28;20049;-66
2022/06/11 06:57:44;;;;;;;5.13;1.30;;;22.40;99.90;;;;;;4995116;28;20054;-67
2022/06/11 07:00:11;;;;;;;5.13;1.50;;;22.60;99.90;;;;;;4995046;28;20730;-66
2022/06/11 07:02:37;;;;;;;3.25;1.08;;;22.50;99.90;;;;;;4995267;28;20105;-66
2022/06/11 07:05:04;;;;;;;10.23;1.80;;;22.80;99.90;;;;;;4994003;28;20073;-66
2022/06/11 07:07:29;;;;;;;17.80;1.73;;;22.80;99.90;;;;;;4995184;28;20128;-67
2022/06/11 07:09:57;;;;;;;9.48;1.27;;;23.00;99.90;;;;;;4995216;28;20522;-67
2022/06/11 07:12:23;;;;;;;6.10;1.98;;;23.00;99.90;;;;;;4995049;28;20072;-66
2022/06/11 07:14:49;;;;;;;7.97;1.30;;;23.30;99.90;;;;;;4995161;28;20045;-66
2022/06/11 07:17:17;;;;;;;3.15;1.35;;;23.40;99.90;;;;;;4994976;28;20046;-66
2022/06/11 07:19:49;;;;;;;7.22;1.35;;;23.30;99.90;;;;;;4995111;28;20200;-66
2022/06/11 07:22:27;;;;;;;5.95;1.45;;;23.50;99.90;;;;;;4994577;28;20544;-66
2022/06/11 07:24:52;;;;;;;5.13;1.70;;;23.30;99.00;;;;;;4995009;28;20103;-67
2022/06/11 07:27:31;;;;;;;4.55;1.30;;;23.50;99.50;;;;;;4994346;28;20042;-66
2022/06/11 07:30:10;;;;;;;7.05;1.40;;;23.80;99.90;;;;;;4994728;28;20120;-66
2022/06/11 07:32:38;;;;;;;6.68;1.38;;;23.90;97.60;;;;;;4994665;28;20043;-66
2022/06/11 07:35:05;;;;;;;7.22;1.63;;;23.90;94.90;;;;;;4994663;28;20485;-66
2022/06/11 07:37:33;;;;;;;2.72;1.23;;;24.10;97.80;;;;;;4994670;28;20090;-66
2022/06/11 07:39:59;;;;;;;4.70;1.40;;;24.20;98.00;;;;;;4994785;28;20050;-66
2022/06/11 07:42:25;;;;;;;3.75;1.23;;;24.20;96.80;;;;;;4994609;28;20033;-66
2022/06/11 07:44:51;;;;;;;4.90;1.27;;;23.70;92.00;;;;;;4994316;28;20046;-67
2022/06/11 07:47:53;;;;;;;10.88;1.63;;;24.30;95.70;;;;;;4994404;28;20042;-66
2022/06/11 07:50:03;;;;;;;5.03;1.23;;;24.50;94.70;;;;;;4994455;28;20089;-66
2022/06/11 07:52:29;;;;;;;4.47;1.25;;;24.50;92.20;;;;;;4994503;28;20571;-66
2022/06/11 07:54:55;;;;;;;6.05;1.33;;;23.50;94.00;;;;;;4994443;28;20129;-66
2022/06/11 07:57:21;;;;;;;4.85;1.50;;;24.10;92.60;;;;;;4994206;28;20575;-66
2022/06/11 07:59:48;;;;;;;7.82;1.35;;;23.40;92.70;;;;;;4993932;28;20045;-68
2022/06/11 08:02:13;;;;;;;3.33;1.17;;;23.60;93.60;;;;;;4994127;28;20046;-66
2022/06/11 08:04:39;;;;;;;8.95;0.93;;;23.20;92.40;;;;;;4994132;28;20564;-66
2022/06/11 08:07:05;;;;;;;8.10;1.40;;;23.30;92.90;;;;;;4994216;28;20532;-66
2022/06/11 08:09:31;;;;;;;5.95;1.42;;;23.70;91.80;;;;;;4994262;28;20046;-66
2022/06/11 08:11:56;;;;;;;3.42;1.10;;;23.90;92.10;;;;;;4994127;28;20418;-67
2022/06/11 08:14:22;;;;;;;7.22;1.33;;;23.30;91.80;;;;;;4993823;28;20441;-66
2022/06/11 08:16:48;;;;;;;2.95;1.17;;;23.20;92.20;;;;;;4993747;28;20509;-66
2022/06/11 08:19:14;;;;;;;6.07;1.23;;;23.40;91.90;;;;;;4990840;28;20054;-67
2022/06/11 08:21:41;;;;;;;4.60;1.38;;;23.50;91.50;;;;;;4993778;28;20112;-67
2022/06/11 08:24:07;;;;;;;6.63;1.20;;;24.10;92.90;;;;;;4994006;28;20396;-66
2022/06/11 08:26:34;;;;;;;3.55;1.30;;;23.40;91.50;;;;;;4993713;28;20050;-66
2022/06/11 08:29:00;;;;;;;8.13;1.73;;;23.00;91.60;;;;;;4993623;28;20038;-66
2022/06/11 08:31:26;;;;;;;39.10;4.38;;;23.20;92.00;;;;;;4993027;28;20038;-66
2022/06/11 08:33:51;;;;;;;32.17;3.95;;;23.30;91.90;;;;;;4993360;28;20038;-66
2022/06/11 08:36:17;;;;;;;44.28;4.30;;;23.70;91.30;;;;;;4993265;28;20045;-66
2022/06/11 08:38:43;;;;;;;12.98;2.13;;;23.50;91.70;;;;;;4993477;28;20058;-66
2022/06/11 08:41:16;;;;;;;3.88;1.27;;;23.90;90.70;;;;;;4993598;28;20092;-67
2022/06/11 08:43:50;;;;;;;3.72;0.98;;;23.50;91.00;;;;;;4984478;28;20054;-65
2022/06/11 08:46:19;;;;;;;1.98;1.05;;;23.40;91.40;;;;;;4991641;28;20038;-65
2022/06/11 08:48:58;;;;;;;5.55;1.20;;;23.50;91.00;;;;;;4991394;28;20050;-66
2022/06/11 08:51:47;;;;;;;5.47;1.08;;;23.40;91.70;;;;;;4991587;28;20042;-66
2022/06/11 08:54:31;;;;;;;6.60;1.30;;;23.90;90.20;;;;;;4991272;28;20439;-66
2022/06/11 08:57:06;;;;;;;4.53;1.45;;;23.50;91.20;;;;;;4990453;28;20047;-65
2022/06/11 09:00:04;;;;;;;6.95;1.08;;;23.70;90.90;;;;;;4991636;28;20070;-66
2022/06/11 09:02:59;;;;;;;6.03;1.50;;;24.40;90.70;;;;;;4991869;28;20042;-64
2022/06/11 09:05:51;;;;;;;3.28;1.20;;;23.50;91.40;;;;;;4977176;28;20041;-65
2022/06/11 09:08:51;;;;;;;5.13;1.20;;;23.60;91.70;;;;;;4991526;28;20564;-65
2022/06/11 09:11:19;;;;;;;6.57;1.23;;;23.40;91.50;;;;;;4990803;28;20096;-64
2022/06/11 09:13:56;;;;;;;4.88;1.38;;;23.50;91.40;;;;;;4991021;28;20038;-65
2022/06/11 09:16:22;;;;;;;5.45;1.48;;;23.50;91.70;;;;;;4991231;28;20121;-65
2022/06/11 09:19:05;;;;;;;3.10;1.27;;;24.20;92.00;;;;;;4989556;28;20487;-65
2022/06/11 09:21:36;;;;;;;6.25;1.50;;;24.00;91.50;;;;;;4991348;28;20038;-65
2022/06/11 09:24:28;;;;;;;8.10;1.58;;;24.60;91.40;;;;;;4992344;28;20042;-65
2022/06/11 09:26:54;;;;;;;3.17;1.00;;;23.90;91.20;;;;;;4990423;28;20132;-65
2022/06/11 09:29:38;;;;;;;5.63;1.23;;;23.80;91.60;;;;;;4991219;28;20133;-65
2022/06/11 09:32:14;;;;;;;4.95;1.27;;;24.10;91.30;;;;;;4991164;28;20043;-65
2022/06/11 09:34:59;;;;;;;7.22;2.45;;;24.20;91.50;;;;;;4991002;28;20057;-65
2022/06/11 09:37:46;;;;;;;4.25;1.38;;;23.50;91.70;;;;;;4990693;28;20057;-66
2022/06/11 09:40:32;;;;;;;3.00;0.95;;;23.70;91.70;;;;;;4987132;28;20049;-65
2022/06/11 09:43:14;;;;;;;5.25;1.75;;;24.00;91.70;;;;;;4990635;28;20062;-65
2022/06/11 09:46:00;;;;;;;4.80;1.58;;;24.90;92.00;;;;;;4991366;28;20449;-65
2022/06/11 09:48:47;;;;;;;2.28;0.80;;;24.70;90.80;;;;;;4991250;28;20050;-65
2022/06/11 09:51:22;;;;;;;2.83;1.30;;;24.80;91.20;;;;;;4994307;28;20394;-65
2022/06/11 09:54:13;;;;;;;3.88;1.27;;;24.40;91.80;;;;;;4996573;28;20045;-65
2022/06/11 09:57:09;;;;;;;4.13;1.17;;;24.90;91.90;;;;;;4994672;28;20077;-65
2022/06/11 09:59:57;;;;;;;3.28;1.15;;;24.80;91.60;;;;;;4995140;28;20181;-65
2022/06/11 10:05:28;;;;;;;4.05;1.13;;;24.10;91.70;;;;;;4994939;28;20505;-65
2022/06/11 10:08:01;;;;;;;4.13;1.13;;;24.20;91.30;;;;;;4994461;28;20046;-66
2022/06/11 10:10:32;;;;;;;3.58;1.58;;;23.90;90.90;;;;;;4995780;28;20058;-65
2022/06/11 10:13:06;;;;;;;2.92;1.13;;;24.50;91.60;;;;;;4994931;28;20461;-66
2022/06/11 10:15:38;;;;;;;3.97;1.30;;;24.90;91.80;;;;;;4993844;28;20379;-66
2022/06/11 10:18:30;;;;;;;4.57;1.40;;;24.80;90.40;;;;;;4994069;28;20054;-65
2022/06/11 10:21:06;;;;;;;7.88;1.48;;;24.30;91.30;;;;;;4989421;28;20532;-66
2022/06/11 10:23:57;;;;;;;3.28;1.30;;;24.80;92.10;;;;;;4994057;28;20049;-66
2022/06/11 10:26:42;;;;;;;1.83;0.85;;;25.00;90.90;;;;;;4994662;28;20054;-66
2022/06/11 10:29:16;;;;;;;4.47;1.20;;;25.10;90.70;;;;;;4992092;28;20038;-65
2022/06/11 10:31:52;;;;;;;4.60;1.42;;;24.50;90.40;;;;;;4993721;28;20070;-64
2022/06/11 10:34:25;;;;;;;5.45;1.33;;;24.70;90.70;;;;;;4993094;28;20046;-66
2022/06/11 10:37:19;;;;;;;5.38;1.15;;;24.60;91.20;;;;;;4992875;28;20042;-65
2022/06/11 10:40:06;;;;;;;2.90;1.13;;;25.00;90.50;;;;;;4992638;28;20044;-65
2022/06/11 10:42:46;;;;;;;4.05;1.38;;;25.20;90.20;;;;;;4992524;28;20042;-65
2022/06/11 10:45:13;;;;;;;;;;;25.20;90.90;;;;;;4993656;28;20034;-65
2022/06/11 10:47:43;;;;;;;4.38;1.05;;;25.00;90.00;;;;;;4991520;28;19914;-66
2022/06/11 10:50:11;;;;;;;4.00;1.25;;;24.90;91.10;;;;;;4992068;28;20042;-65
2022/06/11 10:52:51;;;;;;;3.78;1.27;;;24.90;90.60;;;;;;4992467;28;20720;-65
2022/06/11 10:55:30;;;;;;;6.30;1.23;;;24.60;90.80;;;;;;4991964;28;20153;-65
2022/06/11 10:58:00;;;;;;;5.50;1.30;;;24.90;91.30;;;;;;4992061;28;20050;-65
2022/06/11 11:00:35;;;;;;;3.83;1.47;;;25.40;90.90;;;;;;4993349;28;20133;-65
2022/06/11 11:03:05;;;;;;;6.93;1.90;;;25.40;91.30;;;;;;4991884;28;20398;-65
2022/06/11 11:05:50;;;;;;;4.27;1.23;;;25.10;90.10;;;;;;4993283;28;20049;-65
2022/06/11 11:08:16;;;;;;;2.97;1.05;;;25.20;90.10;;;;;;4992951;28;20273;-64
2022/06/11 11:10:51;;;;;;;3.88;1.00;;;25.80;90.40;;;;;;4992790;28;20050;-65
2022/06/11 11:13:23;;;;;;;4.80;1.40;;;26.20;90.90;;;;;;4994949;28;20045;-65
2022/06/11 11:16:21;;;;;;;3.38;1.20;;;26.00;90.40;;;;;;4993562;28;20072;-66
2022/06/11 11:19:18;;;;;;;7.47;1.63;;;25.90;90.70;;;;;;4992400;28;20053;-66
2022/06/11 11:21:56;;;;;;;8.05;1.55;;;25.50;89.90;;;;;;4992681;28;20405;-65
2022/06/11 11:24:29;;;;;;;6.55;1.10;;;25.40;89.80;;;;;;4992571;28;20049;-65
2022/06/11 11:27:04;;;;;;;8.93;1.90;;;25.60;90.80;;;;;;4991951;28;20042;-65
2022/06/11 11:29:39;;;;;;;10.18;1.40;;;26.20;90.30;;;;;;4992890;28;20379;-66
2022/06/11 11:32:26;;;;;;;4.85;1.25;;;25.80;87.90;;;;;;4993011;28;20053;-65
2022/06/11 11:34:52;;;;;;;6.60;1.30;;;25.80;87.30;;;;;;4992594;28;20034;-65
2022/06/11 11:37:31;;;;;;;3.63;1.65;;;25.60;88.30;;;;;;4993913;28;20064;-64
2022/06/11 11:40:00;;;;;;;5.00;1.33;;;25.50;87.90;;;;;;4994160;28;20127;-64
2022/06/11 11:42:37;;;;;;;3.25;1.50;;;25.60;87.30;;;;;;4992628;28;20506;-64
2022/06/11 11:45:19;;;;;;;5.20;1.35;;;25.70;89.00;;;;;;4992356;28;20185;-65
2022/06/11 11:47:46;;;;;;;4.60;1.10;;;25.90;90.00;;;;;;4991996;28;20050;-65
2022/06/11 11:50:11;;;;;;;4.80;1.50;;;25.80;90.10;;;;;;4992436;28;20042;-66
2022/06/11 11:52:50;;;;;;;4.20;1.20;;;25.70;89.10;;;;;;4993527;28;20516;-66
2022/06/11 11:55:39;;;;;;;3.65;1.27;;;25.90;90.80;;;;;;4991790;28;20050;-66
2022/06/11 11:58:16;;;;;;;3.30;1.08;;;25.90;89.70;;;;;;4992624;28;20472;-66
2022/06/11 12:00:48;;;;;;;6.75;1.27;;;26.00;89.90;;;;;;4992548;28;20065;-66
2022/06/11 12:03:34;;;;;;;6.03;1.20;;;26.10;88.80;;;;;;4993352;28;20061;-66
2022/06/11 12:05:59;;;;;;;4.18;1.40;;;25.80;88.60;;;;;;4991794;28;20046;-66
2022/06/11 12:08:30;;;;;;;2.63;1.27;;;25.80;89.20;;;;;;4992139;28;20042;-66
2022/06/11 12:11:00;;;;;;;3.60;1.20;;;26.30;90.40;;;;;;4991400;28;20409;-66
2022/06/11 12:13:45;;;;;;;10.02;1.38;;;26.40;87.90;;;;;;4991948;28;20042;-66
2022/06/11 12:16:25;;;;;;;4.38;1.27;;;25.80;88.00;;;;;;4992115;28;20433;-66
2022/06/11 12:18:55;;;;;;;4.97;1.52;;;26.20;87.50;;;;;;4991690;28;20045;-66
2022/06/11 12:21:28;;;;;;;2.35;1.00;;;26.30;86.10;;;;;;4991878;28;20176;-66
2022/06/11 12:24:06;;;;;;;4.68;1.30;;;26.20;86.20;;;;;;4993415;28;20046;-66
2022/06/11 12:26:41;;;;;;;4.45;1.00;;;26.30;87.40;;;;;;4992116;28;20053;-66
2022/06/11 12:29:29;;;;;;;6.15;1.25;;;26.60;86.20;;;;;;4988464;28;20030;-66
2022/06/11 12:32:01;;;;;;;4.93;1.13;;;26.50;86.50;;;;;;4992701;28;20057;-66
2022/06/11 12:34:30;;;;;;;3.92;1.13;;;26.60;84.90;;;;;;4991627;28;20030;-65
2022/06/11 12:37:11;;;;;;;1.73;0.97;;;26.50;81.60;;;;;;4991249;28;20050;-66
2022/06/11 12:40:13;;;;;;;3.85;1.00;;;26.60;85.60;;;;;;4991753;28;20096;-66
2022/06/11 12:42:57;;;;;;;6.43;0.98;;;26.40;84.50;;;;;;4991537;28;20038;-66
2022/06/11 12:45:30;;;;;;;6.57;1.52;;;26.10;85.20;;;;;;4991624;28;20104;-66
2022/06/11 12:48:40;;;;;;;10.18;1.23;;;26.20;85.30;;;;;;4992836;28;20034;-66
2022/06/11 12:51:25;;;;;;;3.97;1.20;;;26.40;85.00;;;;;;4981085;28;20073;-66
2022/06/11 12:53:57;;;;;;;3.25;1.15;;;26.40;85.00;;;;;;4991438;28;20503;-66
2022/06/11 12:56:32;;;;;;;3.53;1.25;;;26.30;83.10;;;;;;4990875;28;20042;-66
2022/06/11 12:59:26;;;;;;;2.35;1.00;;;25.90;83.40;;;;;;4991025;28;20390;-66
2022/06/11 13:02:09;;;;;;;5.85;1.45;;;26.20;86.20;;;;;;4905395;28;20122;-66
2022/06/11 13:04:46;;;;;;;4.43;1.83;;;26.20;83.90;;;;;;4991790;28;20498;-66
2022/06/11 13:07:24;;;;;;;5.68;1.20;;;26.60;84.50;;;;;;4991578;28;20042;-66
2022/06/11 13:10:16;;;;;;;11.55;1.88;;;26.70;85.00;;;;;;4991734;28;20030;-66
2022/06/11 13:13:03;;;;;;;4.05;1.65;;;26.70;86.40;;;;;;4991110;28;20042;-66
2022/06/11 13:16:08;;;;;;;4.05;1.50;;;26.60;84.20;;;;;;4990246;28;20062;-66
2022/06/11 13:18:43;;;;;;;5.80;1.05;;;26.70;86.10;;;;;;4930793;29;20626;-66
2022/06/11 13:21:29;;;;;;;3.75;1.02;;;27.00;84.30;;;;;;4929090;29;20126;-67
2022/06/11 13:24:19;;;;;;;2.80;1.52;;;27.00;85.40;;;;;;4968110;28;20132;-65